CheckWX is a tool to help pilots better visualize weather data.  It is not intended as a substitute for an official pre-flight weather briefing.

18:15:20 UTC

K5SM METAR
Sunlight Airport
Sunlight Mountain, Colorado, USA
Current

28 mins ago

K5SM 211747Z AUTO 19004KT 2 1/2SM -SN BKN003 BKN008 OVC016 M03/M05 A3004 RMK AO2
Observed
Nov-21 @ 17:47 UTC
Wind
  • 190° at 4 KTS
Visibility
2 1/2 SM
Flight Rules
LIFR
Conditions
Light Snow
Cloud Levels
  • Broken at 300' AGL
  • Broken at 800' AGL
  • Overcast at 1,600' AGL
Temperature
-3°C / 27°F
Dewpoint
-5°C / 23°F
Humidity
86%
Altimeter
30.04" Hg
Pressure
1017.32 hPa
Previous

51 mins ago

K5SM 211724Z AUTO 20005KT 1 1/2SM -SN BKN003 OVC008 M04/M05 A3004 RMK AO2
Observed
Nov-21 @ 17:24 UTC
Wind
  • 200° at 5 KTS
Visibility
1 1/2 SM
Flight Rules
LIFR
Conditions
Light Snow
Cloud Levels
  • Broken at 300' AGL
  • Overcast at 800' AGL
Temperature
-4°C / 25°F
Dewpoint
-5°C / 23°F
Humidity
93%
Altimeter
30.04" Hg
Pressure
1017.32 hPa
Previous

1 hour ago

K5SM 211706Z AUTO 20005KT 1SM -SN SCT001 OVC010 M03/M05 A3004 RMK AO2
Observed
Nov-21 @ 17:06 UTC
Wind
  • 200° at 5 KTS
Visibility
1 SM
Flight Rules
IFR
Conditions
Light Snow
Cloud Levels
  • Scattered at 100' AGL
  • Overcast at 1,000' AGL
Temperature
-3°C / 27°F
Dewpoint
-5°C / 23°F
Humidity
86%
Altimeter
30.04" Hg
Pressure
1017.32 hPa